sensor_id;sensor_type;location;lat;lon;timestamp;P1;durP1;ratioP1;P2;durP2;ratioP2
1026;SDS011;502;48.746;9.214;2022-10-16T00:01:06;2.63;;;2.00;;
1026;SDS011;502;48.746;9.214;2022-10-16T00:03:35;7.97;;;2.73;;
1026;SDS011;502;48.746;9.214;2022-10-16T00:06:02;4.40;;;2.17;;
1026;SDS011;502;48.746;9.214;2022-10-16T00:08:29;3.30;;;2.30;;
1026;SDS011;502;48.746;9.214;2022-10-16T00:10:59;2.90;;;2.00;;
1026;SDS011;502;48.746;9.214;2022-10-16T00:13:28;2.90;;;2.47;;
1026;SDS011;502;48.746;9.214;2022-10-16T00:15:55;2.50;;;2.10;;
1026;SDS011;502;48.746;9.214;2022-10-16T00:18:22;2.10;;;1.80;;
1026;SDS011;502;48.746;9.214;2022-10-16T00:20:50;3.33;;;2.17;;
1026;SDS011;502;48.746;9.214;2022-10-16T00:23:17;4.67;;;2.20;;
1026;SDS011;502;48.746;9.214;2022-10-16T00:25:44;2.93;;;1.90;;
1026;SDS011;502;48.746;9.214;2022-10-16T00:28:10;2.90;;;2.03;;
1026;SDS011;502;48.746;9.214;2022-10-16T00:30:37;3.20;;;1.80;;
1026;SDS011;502;48.746;9.214;2022-10-16T00:33:04;2.90;;;2.27;;
1026;SDS011;502;48.746;9.214;2022-10-16T00:35:31;2.83;;;2.20;;
1026;SDS011;502;48.746;9.214;2022-10-16T00:37:59;3.07;;;2.67;;
1026;SDS011;502;48.746;9.214;2022-10-16T00:40:25;3.30;;;2.33;;
1026;SDS011;502;48.746;9.214;2022-10-16T00:42:53;2.67;;;2.10;;
1026;SDS011;502;48.746;9.214;2022-10-16T00:45:20;2.93;;;2.20;;
1026;SDS011;502;48.746;9.214;2022-10-16T00:47:46;7.30;;;2.73;;
1026;SDS011;502;48.746;9.214;2022-10-16T00:50:16;3.27;;;2.50;;
1026;SDS011;502;48.746;9.214;2022-10-16T00:52:46;2.70;;;2.30;;
1026;SDS011;502;48.746;9.214;2022-10-16T00:55:15;3.40;;;2.67;;
1026;SDS011;502;48.746;9.214;2022-10-16T00:57:42;2.80;;;2.60;;
1026;SDS011;502;48.746;9.214;2022-10-16T01:00:10;2.60;;;2.40;;
1026;SDS011;502;48.746;9.214;2022-10-16T01:02:39;3.33;;;2.70;;
1026;SDS011;502;48.746;9.214;2022-10-16T01:05:05;3.63;;;2.37;;
1026;SDS011;502;48.746;9.214;2022-10-16T01:07:36;3.20;;;2.50;;
1026;SDS011;502;48.746;9.214;2022-10-16T01:10:12;3.43;;;3.00;;
1026;SDS011;502;48.746;9.214;2022-10-16T01:12:48;5.37;;;2.60;;
1026;SDS011;502;48.746;9.214;2022-10-16T01:15:17;2.70;;;2.50;;
1026;SDS011;502;48.746;9.214;2022-10-16T01:17:49;3.77;;;3.13;;
1026;SDS011;502;48.746;9.214;2022-10-16T01:20:21;3.23;;;2.90;;
1026;SDS011;502;48.746;9.214;2022-10-16T01:22:56;3.13;;;2.73;;
1026;SDS011;502;48.746;9.214;2022-10-16T01:25:34;4.97;;;2.97;;
1026;SDS011;502;48.746;9.214;2022-10-16T01:28:08;6.63;;;4.47;;
1026;SDS011;502;48.746;9.214;2022-10-16T01:30:35;3.27;;;2.97;;
1026;SDS011;502;48.746;9.214;2022-10-16T01:33:03;4.23;;;3.40;;
1026;SDS011;502;48.746;9.214;2022-10-16T01:35:34;4.00;;;3.10;;
1026;SDS011;502;48.746;9.214;2022-10-16T01:38:03;5.60;;;2.67;;
1026;SDS011;502;48.746;9.214;2022-10-16T01:40:31;6.30;;;2.33;;
1026;SDS011;502;48.746;9.214;2022-10-16T01:43:01;6.63;;;3.00;;
1026;SDS011;502;48.746;9.214;2022-10-16T01:45:31;3.40;;;2.97;;
1026;SDS011;502;48.746;9.214;2022-10-16T01:48:00;4.53;;;2.70;;
1026;SDS011;502;48.746;9.214;2022-10-16T01:50:29;7.23;;;2.17;;
1026;SDS011;502;48.746;9.214;2022-10-16T01:52:57;3.10;;;2.80;;
1026;SDS011;502;48.746;9.214;2022-10-16T01:55:25;3.30;;;2.90;;
1026;SDS011;502;48.746;9.214;2022-10-16T01:57:54;3.40;;;2.47;;
1026;SDS011;502;48.746;9.214;2022-10-16T02:00:21;5.27;;;3.57;;
1026;SDS011;502;48.746;9.214;2022-10-16T02:02:51;3.73;;;2.63;;
1026;SDS011;502;48.746;9.214;2022-10-16T02:05:21;5.83;;;3.10;;
1026;SDS011;502;48.746;9.214;2022-10-16T02:07:50;3.03;;;2.70;;
1026;SDS011;502;48.746;9.214;2022-10-16T02:10:18;3.60;;;2.80;;
1026;SDS011;502;48.746;9.214;2022-10-16T02:12:45;3.83;;;3.20;;
1026;SDS011;502;48.746;9.214;2022-10-16T02:15:16;7.33;;;3.00;;
1026;SDS011;502;48.746;9.214;2022-10-16T02:17:42;3.40;;;3.10;;
1026;SDS011;502;48.746;9.214;2022-10-16T02:20:11;4.70;;;2.70;;
1026;SDS011;502;48.746;9.214;2022-10-16T02:22:38;6.33;;;2.97;;
1026;SDS011;502;48.746;9.214;2022-10-16T02:25:08;2.80;;;2.50;;
1026;SDS011;502;48.746;9.214;2022-10-16T02:27:38;4.30;;;2.80;;
1026;SDS011;502;48.746;9.214;2022-10-16T02:30:11;6.10;;;2.90;;
1026;SDS011;502;48.746;9.214;2022-10-16T02:32:41;4.00;;;2.67;;
1026;SDS011;502;48.746;9.214;2022-10-16T02:35:10;4.73;;;3.00;;
1026;SDS011;502;48.746;9.214;2022-10-16T02:37:38;4.40;;;3.27;;
1026;SDS011;502;48.746;9.214;2022-10-16T02:40:05;3.47;;;3.10;;
1026;SDS011;502;48.746;9.214;2022-10-16T02:42:34;3.93;;;2.77;;
1026;SDS011;502;48.746;9.214;2022-10-16T02:45:02;3.47;;;2.70;;
1026;SDS011;502;48.746;9.214;2022-10-16T02:47:29;2.63;;;2.43;;
1026;SDS011;502;48.746;9.214;2022-10-16T02:49:55;2.50;;;2.30;;
1026;SDS011;502;48.746;9.214;2022-10-16T02:52:23;3.70;;;2.77;;
1026;SDS011;502;48.746;9.214;2022-10-16T02:54:50;4.40;;;2.57;;
1026;SDS011;502;48.746;9.214;2022-10-16T02:57:16;5.43;;;2.47;;
1026;SDS011;502;48.746;9.214;2022-10-16T02:59:43;3.30;;;2.63;;
1026;SDS011;502;48.746;9.214;2022-10-16T03:02:10;6.00;;;2.33;;
1026;SDS011;502;48.746;9.214;2022-10-16T03:04:37;5.03;;;2.70;;
1026;SDS011;502;48.746;9.214;2022-10-16T03:07:04;3.20;;;2.67;;
1026;SDS011;502;48.746;9.214;2022-10-16T03:09:32;3.23;;;2.93;;
1026;SDS011;502;48.746;9.214;2022-10-16T03:11:59;4.00;;;2.83;;
1026;SDS011;502;48.746;9.214;2022-10-16T03:14:25;2.60;;;2.40;;
1026;SDS011;502;48.746;9.214;2022-10-16T03:16:52;3.63;;;2.57;;
1026;SDS011;502;48.746;9.214;2022-10-16T03:19:19;4.83;;;2.30;;
1026;SDS011;502;48.746;9.214;2022-10-16T03:21:45;3.20;;;2.30;;
1026;SDS011;502;48.746;9.214;2022-10-16T03:24:12;3.30;;;2.43;;
1026;SDS011;502;48.746;9.214;2022-10-16T03:26:40;3.00;;;2.30;;
1026;SDS011;502;48.746;9.214;2022-10-16T03:29:07;2.50;;;2.20;;
1026;SDS011;502;48.746;9.214;2022-10-16T03:31:34;3.40;;;2.20;;
1026;SDS011;502;48.746;9.214;2022-10-16T03:34:00;2.30;;;1.97;;
1026;SDS011;502;48.746;9.214;2022-10-16T03:36:27;2.30;;;2.07;;
1026;SDS011;502;48.746;9.214;2022-10-16T03:38:54;3.10;;;2.00;;
1026;SDS011;502;48.746;9.214;2022-10-16T03:41:20;3.43;;;2.07;;
1026;SDS011;502;48.746;9.214;2022-10-16T03:43:48;1.90;;;1.60;;
1026;SDS011;502;48.746;9.214;2022-10-16T03:46:15;2.10;;;1.90;;
1026;SDS011;502;48.746;9.214;2022-10-16T03:48:42;3.40;;;1.87;;
1026;SDS011;502;48.746;9.214;2022-10-16T03:51:08;2.57;;;1.40;;
1026;SDS011;502;48.746;9.214;2022-10-16T03:53:35;2.97;;;1.90;;
1026;SDS011;502;48.746;9.214;2022-10-16T03:56:02;2.73;;;1.40;;
1026;SDS011;502;48.746;9.214;2022-10-16T03:58:28;3.20;;;1.57;;
1026;SDS011;502;48.746;9.214;2022-10-16T04:00:57;2.13;;;1.67;;
1026;SDS011;502;48.746;9.214;2022-10-16T04:03:23;2.47;;;1.80;;
1026;SDS011;502;48.746;9.214;2022-10-16T04:05:50;1.80;;;1.60;;
1026;SDS011;502;48.746;9.214;2022-10-16T04:08:17;2.77;;;1.97;;
1026;SDS011;502;48.746;9.214;2022-10-16T04:10:43;2.33;;;1.90;;
1026;SDS011;502;48.746;9.214;2022-10-16T04:13:10;3.60;;;1.80;;
1026;SDS011;502;48.746;9.214;2022-10-16T04:15:37;4.47;;;1.90;;
1026;SDS011;502;48.746;9.214;2022-10-16T04:18:05;1.70;;;1.50;;
1026;SDS011;502;48.746;9.214;2022-10-16T04:20:32;3.40;;;1.70;;
1026;SDS011;502;48.746;9.214;2022-10-16T04:22:59;10.83;;;1.93;;
1026;SDS011;502;48.746;9.214;2022-10-16T04:25:26;5.07;;;2.07;;
1026;SDS011;502;48.746;9.214;2022-10-16T04:27:52;13.87;;;2.27;;
1026;SDS011;502;48.746;9.214;2022-10-16T04:30:19;2.10;;;1.90;;
1026;SDS011;502;48.746;9.214;2022-10-16T04:32:47;3.60;;;2.10;;
1026;SDS011;502;48.746;9.214;2022-10-16T04:35:16;4.33;;;1.80;;
1026;SDS011;502;48.746;9.214;2022-10-16T04:37:42;1.90;;;1.70;;
1026;SDS011;502;48.746;9.214;2022-10-16T04:40:09;2.70;;;2.10;;
1026;SDS011;502;48.746;9.214;2022-10-16T04:42:36;2.10;;;1.90;;
1026;SDS011;502;48.746;9.214;2022-10-16T04:45:03;3.77;;;2.20;;
1026;SDS011;502;48.746;9.214;2022-10-16T04:47:31;2.90;;;2.10;;
1026;SDS011;502;48.746;9.214;2022-10-16T04:49:58;3.30;;;2.33;;
1026;SDS011;502;48.746;9.214;2022-10-16T04:52:27;3.30;;;2.10;;
1026;SDS011;502;48.746;9.214;2022-10-16T04:54:54;3.10;;;2.17;;
1026;SDS011;502;48.746;9.214;2022-10-16T04:57:25;3.33;;;2.40;;
1026;SDS011;502;48.746;9.214;2022-10-16T04:59:52;2.90;;;1.70;;
1026;SDS011;502;48.746;9.214;2022-10-16T05:02:18;2.73;;;2.53;;
1026;SDS011;502;48.746;9.214;2022-10-16T05:04:45;2.40;;;2.20;;
1026;SDS011;502;48.746;9.214;2022-10-16T05:07:12;3.30;;;2.00;;
1026;SDS011;502;48.746;9.214;2022-10-16T05:09:40;2.53;;;2.00;;
1026;SDS011;502;48.746;9.214;2022-10-16T05:12:07;2.30;;;2.00;;
1026;SDS011;502;48.746;9.214;2022-10-16T05:14:33;5.70;;;2.47;;
1026;SDS011;502;48.746;9.214;2022-10-16T05:17:00;2.90;;;2.30;;
1026;SDS011;502;48.746;9.214;2022-10-16T05:19:27;3.13;;;2.07;;
1026;SDS011;502;48.746;9.214;2022-10-16T05:21:53;3.80;;;2.30;;
1026;SDS011;502;48.746;9.214;2022-10-16T05:24:21;2.83;;;2.30;;
1026;SDS011;502;48.746;9.214;2022-10-16T05:26:49;2.70;;;1.80;;
1026;SDS011;502;48.746;9.214;2022-10-16T05:29:16;2.30;;;1.83;;
1026;SDS011;502;48.746;9.214;2022-10-16T05:31:42;3.93;;;1.90;;
1026;SDS011;502;48.746;9.214;2022-10-16T05:34:09;2.93;;;1.90;;
1026;SDS011;502;48.746;9.214;2022-10-16T05:36:36;2.77;;;2.00;;
1026;SDS011;502;48.746;9.214;2022-10-16T05:39:02;3.30;;;1.73;;
1026;SDS011;502;48.746;9.214;2022-10-16T05:41:29;2.60;;;1.77;;
1026;SDS011;502;48.746;9.214;2022-10-16T05:43:58;2.33;;;2.13;;
1026;SDS011;502;48.746;9.214;2022-10-16T05:46:24;5.30;;;2.50;;
1026;SDS011;502;48.746;9.214;2022-10-16T05:48:51;4.30;;;2.20;;
1026;SDS011;502;48.746;9.214;2022-10-16T05:51:18;2.30;;;2.10;;
1026;SDS011;502;48.746;9.214;2022-10-16T05:53:45;3.83;;;2.10;;
1026;SDS011;502;48.746;9.214;2022-10-16T05:56:12;3.50;;;2.10;;
1026;SDS011;502;48.746;9.214;2022-10-16T05:58:38;2.77;;;2.10;;
1026;SDS011;502;48.746;9.214;2022-10-16T06:01:10;3.93;;;2.17;;
1026;SDS011;502;48.746;9.214;2022-10-16T06:03:38;3.00;;;1.73;;
1026;SDS011;502;48.746;9.214;2022-10-16T06:06:08;2.30;;;1.83;;
1026;SDS011;502;48.746;9.214;2022-10-16T06:08:36;2.70;;;2.20;;
1026;SDS011;502;48.746;9.214;2022-10-16T06:11:03;1.97;;;1.73;;
1026;SDS011;502;48.746;9.214;2022-10-16T06:13:31;3.10;;;1.90;;
1026;SDS011;502;48.746;9.214;2022-10-16T06:15:58;2.40;;;2.17;;
1026;SDS011;502;48.746;9.214;2022-10-16T06:18:27;3.10;;;2.13;;
1026;SDS011;502;48.746;9.214;2022-10-16T06:20:55;4.10;;;1.80;;
1026;SDS011;502;48.746;9.214;2022-10-16T06:23:22;2.90;;;2.00;;
1026;SDS011;502;48.746;9.214;2022-10-16T06:25:49;3.43;;;1.80;;
1026;SDS011;502;48.746;9.214;2022-10-16T06:28:15;2.73;;;2.53;;
1026;SDS011;502;48.746;9.214;2022-10-16T06:30:42;2.30;;;1.80;;
1026;SDS011;502;48.746;9.214;2022-10-16T06:33:09;4.80;;;2.27;;
1026;SDS011;502;48.746;9.214;2022-10-16T06:35:37;2.70;;;2.17;;
1026;SDS011;502;48.746;9.214;2022-10-16T06:38:04;2.57;;;2.37;;
1026;SDS011;502;48.746;9.214;2022-10-16T06:40:30;4.13;;;2.00;;
1026;SDS011;502;48.746;9.214;2022-10-16T06:42:57;2.83;;;1.90;;
1026;SDS011;502;48.746;9.214;2022-10-16T06:45:25;2.87;;;2.00;;
1026;SDS011;502;48.746;9.214;2022-10-16T06:47:51;3.00;;;1.80;;
1026;SDS011;502;48.746;9.214;2022-10-16T06:50:18;6.20;;;2.27;;
1026;SDS011;502;48.746;9.214;2022-10-16T06:52:46;2.43;;;1.70;;
1026;SDS011;502;48.746;9.214;2022-10-16T06:55:13;2.43;;;1.63;;
1026;SDS011;502;48.746;9.214;2022-10-16T06:57:40;3.60;;;2.10;;
1026;SDS011;502;48.746;9.214;2022-10-16T07:00:07;2.40;;;2.20;;
1026;SDS011;502;48.746;9.214;2022-10-16T07:02:34;4.70;;;1.90;;
1026;SDS011;502;48.746;9.214;2022-10-16T07:05:01;2.87;;;2.20;;
1026;SDS011;502;48.746;9.214;2022-10-16T07:07:27;4.00;;;2.00;;
1026;SDS011;502;48.746;9.214;2022-10-16T07:09:55;2.37;;;1.87;;
1026;SDS011;502;48.746;9.214;2022-10-16T07:12:22;8.20;;;2.00;;
1026;SDS011;502;48.746;9.214;2022-10-16T07:14:49;3.20;;;2.10;;
1026;SDS011;502;48.746;9.214;2022-10-16T07:17:17;3.77;;;2.20;;
1026;SDS011;502;48.746;9.214;2022-10-16T07:19:44;2.10;;;1.73;;
1026;SDS011;502;48.746;9.214;2022-10-16T07:22:11;4.87;;;2.33;;
1026;SDS011;502;48.746;9.214;2022-10-16T07:24:37;4.70;;;2.33;;
1026;SDS011;502;48.746;9.214;2022-10-16T07:27:05;3.40;;;2.20;;
1026;SDS011;502;48.746;9.214;2022-10-16T07:29:32;4.57;;;2.30;;
1026;SDS011;502;48.746;9.214;2022-10-16T07:31:59;2.93;;;2.40;;
1026;SDS011;502;48.746;9.214;2022-10-16T07:34:26;2.43;;;2.20;;
1026;SDS011;502;48.746;9.214;2022-10-16T07:36:52;4.60;;;2.73;;
1026;SDS011;502;48.746;9.214;2022-10-16T07:39:19;2.50;;;2.27;;
1026;SDS011;502;48.746;9.214;2022-10-16T07:41:46;2.40;;;2.03;;
1026;SDS011;502;48.746;9.214;2022-10-16T07:44:15;3.93;;;2.33;;
1026;SDS011;502;48.746;9.214;2022-10-16T07:46:42;5.10;;;2.30;;
1026;SDS011;502;48.746;9.214;2022-10-16T07:49:08;2.77;;;2.17;;
1026;SDS011;502;48.746;9.214;2022-10-16T07:51:35;3.43;;;2.50;;
1026;SDS011;502;48.746;9.214;2022-10-16T07:54:03;2.30;;;2.00;;
1026;SDS011;502;48.746;9.214;2022-10-16T07:56:30;3.30;;;2.07;;
1026;SDS011;502;48.746;9.214;2022-10-16T07:58:57;3.03;;;1.80;;
1026;SDS011;502;48.746;9.214;2022-10-16T08:01:25;6.30;;;2.90;;
1026;SDS011;502;48.746;9.214;2022-10-16T08:03:52;3.73;;;2.27;;
1026;SDS011;502;48.746;9.214;2022-10-16T08:06:20;4.80;;;2.20;;
1026;SDS011;502;48.746;9.214;2022-10-16T08:08:47;2.03;;;1.77;;
1026;SDS011;502;48.746;9.214;2022-10-16T08:11:13;3.93;;;2.10;;
1026;SDS011;502;48.746;9.214;2022-10-16T08:13:41;2.40;;;2.20;;
1026;SDS011;502;48.746;9.214;2022-10-16T08:16:08;4.83;;;2.40;;
1026;SDS011;502;48.746;9.214;2022-10-16T08:18:37;2.93;;;2.63;;
1026;SDS011;502;48.746;9.214;2022-10-16T08:21:05;3.97;;;1.77;;
1026;SDS011;502;48.746;9.214;2022-10-16T08:23:32;2.00;;;1.67;;
1026;SDS011;502;48.746;9.214;2022-10-16T08:26:01;2.80;;;2.40;;
1026;SDS011;502;48.746;9.214;2022-10-16T08:28:29;2.20;;;1.90;;
1026;SDS011;502;48.746;9.214;2022-10-16T08:30:56;2.60;;;2.20;;
1026;SDS011;502;48.746;9.214;2022-10-16T08:33:23;2.47;;;2.10;;
1026;SDS011;502;48.746;9.214;2022-10-16T08:35:51;2.40;;;2.10;;
1026;SDS011;502;48.746;9.214;2022-10-16T08:38:19;3.93;;;2.00;;
1026;SDS011;502;48.746;9.214;2022-10-16T08:40:46;2.33;;;2.00;;
1026;SDS011;502;48.746;9.214;2022-10-16T08:43:21;5.13;;;2.10;;
1026;SDS011;502;48.746;9.214;2022-10-16T08:46:03;3.30;;;2.47;;
1026;SDS011;502;48.746;9.214;2022-10-16T08:48:34;4.30;;;2.17;;
1026;SDS011;502;48.746;9.214;2022-10-16T08:51:09;2.70;;;1.97;;
1026;SDS011;502;48.746;9.214;2022-10-16T08:53:40;3.17;;;1.73;;
1026;SDS011;502;48.746;9.214;2022-10-16T08:56:09;3.07;;;2.00;;
1026;SDS011;502;48.746;9.214;2022-10-16T08:58:36;4.73;;;1.97;;
1026;SDS011;502;48.746;9.214;2022-10-16T09:01:14;2.07;;;1.87;;
1026;SDS011;502;48.746;9.214;2022-10-16T09:03:58;3.80;;;2.40;;
1026;SDS011;502;48.746;9.214;2022-10-16T09:06:50;2.73;;;1.80;;
1026;SDS011;502;48.746;9.214;2022-10-16T09:09:35;4.53;;;2.30;;
1026;SDS011;502;48.746;9.214;2022-10-16T09:12:31;3.47;;;2.40;;
1026;SDS011;502;48.746;9.214;2022-10-16T09:15:02;3.10;;;2.53;;
1026;SDS011;502;48.746;9.214;2022-10-16T09:17:38;4.10;;;2.30;;
1026;SDS011;502;48.746;9.214;2022-10-16T09:20:19;2.50;;;2.00;;
1026;SDS011;502;48.746;9.214;2022-10-16T09:22:52;6.30;;;1.83;;
1026;SDS011;502;48.746;9.214;2022-10-16T09:25:20;3.80;;;1.83;;
1026;SDS011;502;48.746;9.214;2022-10-16T09:27:48;2.00;;;1.57;;
1026;SDS011;502;48.746;9.214;2022-10-16T09:30:16;4.03;;;2.20;;
1026;SDS011;502;48.746;9.214;2022-10-16T09:32:44;2.70;;;1.77;;
1026;SDS011;502;48.746;9.214;2022-10-16T09:35:13;3.20;;;1.60;;
1026;SDS011;502;48.746;9.214;2022-10-16T09:37:41;2.80;;;1.87;;
1026;SDS011;502;48.746;9.214;2022-10-16T09:40:13;3.90;;;1.70;;
1026;SDS011;502;48.746;9.214;2022-10-16T09:42:49;3.93;;;1.97;;
1026;SDS011;502;48.746;9.214;2022-10-16T09:45:20;8.50;;;2.47;;
1026;SDS011;502;48.746;9.214;2022-10-16T09:47:47;2.77;;;1.80;;
1026;SDS011;502;48.746;9.214;2022-10-16T09:50:20;2.40;;;1.60;;
1026;SDS011;502;48.746;9.214;2022-10-16T09:52:49;5.07;;;2.10;;
1026;SDS011;502;48.746;9.214;2022-10-16T09:55:17;2.60;;;1.70;;
1026;SDS011;502;48.746;9.214;2022-10-16T09:57:51;2.50;;;2.30;;
1026;SDS011;502;48.746;9.214;2022-10-16T10:00:18;1.90;;;1.50;;
1026;SDS011;502;48.746;9.214;2022-10-16T10:02:45;2.70;;;2.10;;
1026;SDS011;502;48.746;9.214;2022-10-16T10:05:19;1.60;;;1.30;;
1026;SDS011;502;48.746;9.214;2022-10-16T10:07:53;4.33;;;1.80;;
1026;SDS011;502;48.746;9.214;2022-10-16T10:10:23;4.47;;;1.83;;
1026;SDS011;502;48.746;9.214;2022-10-16T10:12:50;3.40;;;1.70;;
1026;SDS011;502;48.746;9.214;2022-10-16T10:15:17;2.23;;;2.00;;
1026;SDS011;502;48.746;9.214;2022-10-16T10:17:47;1.80;;;1.47;;
1026;SDS011;502;48.746;9.214;2022-10-16T10:20:21;2.90;;;1.93;;
1026;SDS011;502;48.746;9.214;2022-10-16T10:22:49;1.93;;;1.63;;
1026;SDS011;502;48.746;9.214;2022-10-16T10:25:19;3.60;;;1.90;;
1026;SDS011;502;48.746;9.214;2022-10-16T10:30:44;2.80;;;1.60;;
1026;SDS011;502;48.746;9.214;2022-10-16T10:33:18;3.73;;;1.77;;
1026;SDS011;502;48.746;9.214;2022-10-16T10:35:51;3.30;;;1.83;;
1026;SDS011;502;48.746;9.214;2022-10-16T10:38:30;2.43;;;1.27;;
1026;SDS011;502;48.746;9.214;2022-10-16T10:41:14;6.70;;;2.00;;
1026;SDS011;502;48.746;9.214;2022-10-16T10:43:52;2.57;;;1.50;;
1026;SDS011;502;48.746;9.214;2022-10-16T10:46:24;5.97;;;1.60;;
1026;SDS011;502;48.746;9.214;2022-10-16T10:49:02;5.70;;;1.80;;
1026;SDS011;502;48.746;9.214;2022-10-16T10:51:36;3.83;;;1.60;;
1026;SDS011;502;48.746;9.214;2022-10-16T10:54:11;3.87;;;1.80;;
1026;SDS011;502;48.746;9.214;2022-10-16T10:56:44;4.83;;;1.53;;
1026;SDS011;502;48.746;9.214;2022-10-16T10:59:18;2.67;;;1.63;;
1026;SDS011;502;48.746;9.214;2022-10-16T11:02:09;2.70;;;1.63;;
1026;SDS011;502;48.746;9.214;2022-10-16T11:04:47;5.00;;;1.60;;
1026;SDS011;502;48.746;9.214;2022-10-16T11:07:20;3.30;;;1.77;;
1026;SDS011;502;48.746;9.214;2022-10-16T11:09:48;4.77;;;1.73;;
1026;SDS011;502;48.746;9.214;2022-10-16T11:12:23;2.80;;;2.10;;
1026;SDS011;502;48.746;9.214;2022-10-16T11:15:04;1.83;;;1.50;;
1026;SDS011;502;48.746;9.214;2022-10-16T11:17:38;2.50;;;1.73;;
1026;SDS011;502;48.746;9.214;2022-10-16T11:20:11;2.37;;;1.60;;
1026;SDS011;502;48.746;9.214;2022-10-16T11:22:41;2.10;;;1.70;;
1026;SDS011;502;48.746;9.214;2022-10-16T11:25:17;1.80;;;1.40;;
1026;SDS011;502;48.746;9.214;2022-10-16T11:27:51;1.90;;;1.60;;
1026;SDS011;502;48.746;9.214;2022-10-16T11:30:22;2.00;;;1.70;;
1026;SDS011;502;48.746;9.214;2022-10-16T11:32:56;2.07;;;1.80;;
1026;SDS011;502;48.746;9.214;2022-10-16T11:35:32;2.60;;;1.63;;
1026;SDS011;502;48.746;9.214;2022-10-16T11:38:08;2.80;;;1.60;;
1026;SDS011;502;48.746;9.214;2022-10-16T11:40:37;1.70;;;1.60;;
1026;SDS011;502;48.746;9.214;2022-10-16T11:43:13;1.90;;;1.40;;
1026;SDS011;502;48.746;9.214;2022-10-16T11:45:42;1.90;;;1.70;;
1026;SDS011;502;48.746;9.214;2022-10-16T11:48:14;2.33;;;1.70;;
1026;SDS011;502;48.746;9.214;2022-10-16T11:50:45;2.80;;;1.67;;
1026;SDS011;502;48.746;9.214;2022-10-16T11:53:18;2.27;;;1.80;;
1026;SDS011;502;48.746;9.214;2022-10-16T11:55:50;2.20;;;2.00;;
1026;SDS011;502;48.746;9.214;2022-10-16T11:58:22;3.13;;;1.87;;
1026;SDS011;502;48.746;9.214;2022-10-16T12:00:53;2.33;;;1.53;;
1026;SDS011;502;48.746;9.214;2022-10-16T12:03:25;1.80;;;1.50;;
1026;SDS011;502;48.746;9.214;2022-10-16T12:05:57;2.10;;;1.80;;
1026;SDS011;502;48.746;9.214;2022-10-16T12:08:37;2.33;;;1.70;;
1026;SDS011;502;48.746;9.214;2022-10-16T12:11:08;2.87;;;1.40;;
1026;SDS011;502;48.746;9.214;2022-10-16T12:13:38;3.40;;;1.93;;
1026;SDS011;502;48.746;9.214;2022-10-16T12:18:50;1.80;;;1.53;;
1026;SDS011;502;48.746;9.214;2022-10-16T12:21:30;3.47;;;1.70;;
1026;SDS011;502;48.746;9.214;2022-10-16T12:23:57;5.30;;;1.80;;
1026;SDS011;502;48.746;9.214;2022-10-16T12:26:25;3.50;;;1.63;;
1026;SDS011;502;48.746;9.214;2022-10-16T12:28:54;2.90;;;1.60;;
1026;SDS011;502;48.746;9.214;2022-10-16T12:31:22;3.73;;;1.80;;
1026;SDS011;502;48.746;9.214;2022-10-16T12:33:55;3.67;;;1.83;;
1026;SDS011;502;48.746;9.214;2022-10-16T12:36:27;3.30;;;1.70;;
1026;SDS011;502;48.746;9.214;2022-10-16T12:38:55;2.23;;;1.90;;
1026;SDS011;502;48.746;9.214;2022-10-16T12:41:26;3.33;;;2.27;;
1026;SDS011;502;48.746;9.214;2022-10-16T12:43:55;3.70;;;1.93;;
1026;SDS011;502;48.746;9.214;2022-10-16T12:46:23;2.50;;;1.40;;
1026;SDS011;502;48.746;9.214;2022-10-16T12:49:05;4.00;;;2.00;;
1026;SDS011;502;48.746;9.214;2022-10-16T12:51:47;2.00;;;1.70;;
1026;SDS011;502;48.746;9.214;2022-10-16T12:54:14;3.67;;;1.97;;
1026;SDS011;502;48.746;9.214;2022-10-16T12:56:45;1.70;;;1.60;;
1026;SDS011;502;48.746;9.214;2022-10-16T12:59:21;1.70;;;1.60;;
1026;SDS011;502;48.746;9.214;2022-10-16T13:02:01;2.73;;;1.93;;
1026;SDS011;502;48.746;9.214;2022-10-16T13:04:47;2.67;;;1.80;;
1026;SDS011;502;48.746;9.214;2022-10-16T13:07:33;2.27;;;1.47;;
1026;SDS011;502;48.746;9.214;2022-10-16T13:10:11;4.20;;;1.70;;
1026;SDS011;502;48.746;9.214;2022-10-16T13:12:50;2.33;;;1.60;;
1026;SDS011;502;48.746;9.214;2022-10-16T13:18:28;3.43;;;1.80;;
1026;SDS011;502;48.746;9.214;2022-10-16T13:21:01;3.00;;;1.33;;
1026;SDS011;502;48.746;9.214;2022-10-16T13:23:38;2.83;;;1.77;;
1026;SDS011;502;48.746;9.214;2022-10-16T13:26:13;2.40;;;2.10;;
1026;SDS011;502;48.746;9.214;2022-10-16T13:28:45;5.20;;;2.50;;
1026;SDS011;502;48.746;9.214;2022-10-16T13:31:15;2.43;;;2.07;;
1026;SDS011;502;48.746;9.214;2022-10-16T13:33:45;2.43;;;2.23;;
1026;SDS011;502;48.746;9.214;2022-10-16T13:36:19;2.47;;;1.93;;
1026;SDS011;502;48.746;9.214;2022-10-16T13:38:47;4.23;;;2.00;;
1026;SDS011;502;48.746;9.214;2022-10-16T13:41:15;3.73;;;1.87;;
1026;SDS011;502;48.746;9.214;2022-10-16T13:43:43;3.30;;;2.07;;
1026;SDS011;502;48.746;9.214;2022-10-16T13:46:14;2.17;;;1.97;;
1026;SDS011;502;48.746;9.214;2022-10-16T13:48:42;3.23;;;2.17;;
1026;SDS011;502;48.746;9.214;2022-10-16T13:51:12;2.90;;;2.17;;
1026;SDS011;502;48.746;9.214;2022-10-16T13:53:40;2.77;;;2.10;;
1026;SDS011;502;48.746;9.214;2022-10-16T13:56:09;2.80;;;2.00;;
1026;SDS011;502;48.746;9.214;2022-10-16T13:58:37;2.70;;;2.10;;
1026;SDS011;502;48.746;9.214;2022-10-16T14:01:04;3.30;;;1.60;;
1026;SDS011;502;48.746;9.214;2022-10-16T14:03:33;2.80;;;2.40;;
1026;SDS011;502;48.746;9.214;2022-10-16T14:06:02;3.30;;;2.00;;
1026;SDS011;502;48.746;9.214;2022-10-16T14:08:30;3.60;;;2.10;;
1026;SDS011;502;48.746;9.214;2022-10-16T14:10:58;3.00;;;2.37;;
1026;SDS011;502;48.746;9.214;2022-10-16T14:13:32;2.37;;;2.17;;
1026;SDS011;502;48.746;9.214;2022-10-16T14:16:05;3.57;;;2.90;;
1026;SDS011;502;48.746;9.214;2022-10-16T14:18:35;2.50;;;2.27;;
1026;SDS011;502;48.746;9.214;2022-10-16T14:21:04;2.70;;;2.03;;
1026;SDS011;502;48.746;9.214;2022-10-16T14:23:33;4.10;;;2.70;;
1026;SDS011;502;48.746;9.214;2022-10-16T14:26:06;2.40;;;1.83;;
1026;SDS011;502;48.746;9.214;2022-10-16T14:28:39;12.63;;;2.30;;
1026;SDS011;502;48.746;9.214;2022-10-16T14:31:19;2.33;;;2.13;;
1026;SDS011;502;48.746;9.214;2022-10-16T14:33:54;2.63;;;2.27;;
1026;SDS011;502;48.746;9.214;2022-10-16T14:36:21;2.73;;;2.10;;
1026;SDS011;502;48.746;9.214;2022-10-16T14:38:49;2.80;;;2.30;;
1026;SDS011;502;48.746;9.214;2022-10-16T14:41:26;3.50;;;2.33;;
1026;SDS011;502;48.746;9.214;2022-10-16T14:43:54;3.60;;;3.10;;
1026;SDS011;502;48.746;9.214;2022-10-16T14:46:22;3.20;;;2.83;;
1026;SDS011;502;48.746;9.214;2022-10-16T14:48:58;3.10;;;2.20;;
1026;SDS011;502;48.746;9.214;2022-10-16T14:51:27;2.80;;;2.33;;
1026;SDS011;502;48.746;9.214;2022-10-16T14:53:53;4.50;;;2.50;;
1026;SDS011;502;48.746;9.214;2022-10-16T14:56:21;2.50;;;2.30;;
1026;SDS011;502;48.746;9.214;2022-10-16T14:58:49;4.73;;;2.10;;
1026;SDS011;502;48.746;9.214;2022-10-16T15:01:17;3.13;;;2.40;;
1026;SDS011;502;48.746;9.214;2022-10-16T15:03:44;2.67;;;2.07;;
1026;SDS011;502;48.746;9.214;2022-10-16T15:06:12;4.10;;;2.30;;
1026;SDS011;502;48.746;9.214;2022-10-16T15:08:40;2.93;;;2.30;;
1026;SDS011;502;48.746;9.214;2022-10-16T15:11:07;3.27;;;2.87;;
1026;SDS011;502;48.746;9.214;2022-10-16T15:13:37;3.50;;;2.70;;
1026;SDS011;502;48.746;9.214;2022-10-16T15:16:04;5.77;;;2.60;;
1026;SDS011;502;48.746;9.214;2022-10-16T15:18:30;3.93;;;2.63;;
1026;SDS011;502;48.746;9.214;2022-10-16T15:20:57;4.10;;;2.33;;
1026;SDS011;502;48.746;9.214;2022-10-16T15:23:25;4.73;;;2.60;;
1026;SDS011;502;48.746;9.214;2022-10-16T15:25:52;3.47;;;2.80;;
1026;SDS011;502;48.746;9.214;2022-10-16T15:28:20;3.47;;;2.47;;
1026;SDS011;502;48.746;9.214;2022-10-16T15:30:48;5.73;;;2.50;;
1026;SDS011;502;48.746;9.214;2022-10-16T15:33:16;5.43;;;2.50;;
1026;SDS011;502;48.746;9.214;2022-10-16T15:35:45;3.00;;;2.73;;
1026;SDS011;502;48.746;9.214;2022-10-16T15:38:13;4.57;;;2.30;;
1026;SDS011;502;48.746;9.214;2022-10-16T15:40:41;5.90;;;2.87;;
1026;SDS011;502;48.746;9.214;2022-10-16T15:43:08;3.60;;;3.30;;
1026;SDS011;502;48.746;9.214;2022-10-16T15:45:35;3.60;;;3.10;;
1026;SDS011;502;48.746;9.214;2022-10-16T15:48:02;3.13;;;2.83;;
1026;SDS011;502;48.746;9.214;2022-10-16T15:50:29;4.40;;;2.70;;
1026;SDS011;502;48.746;9.214;2022-10-16T15:52:56;2.63;;;2.43;;